Time;durP1;ratioP1;P1;durP2;ratioP2;P2;SDS_P1;SDS_P2;PMS_P1;PMS_P2;Temp;Humidity;BMP_temperature;BMP_pressure;BME280_temperature;BME280_humidity;BME280_pressure;Samples;Min_cycle;Max_cycle;Signal;HPM_P1;HPM_P2
2023/09/05 00:03:36;;;;;;;;;;;21.20;47.20;;;20.38;47.17;102202.31;12250842;19;19914;-87
2023/09/05 00:07:39;;;;;;;;;;;21.10;47.10;;;20.47;47.42;102230.84;12251724;19;19943;-87
2023/09/05 00:11:41;;;;;;;;;;;21.00;47.10;;;20.26;47.55;102212.88;12246136;19;19937;-87
2023/09/05 00:15:42;;;;;;;;;;;21.00;47.20;;;20.43;47.46;102238.19;12249514;19;19927;-87
2023/09/05 00:19:43;;;;;;;;;;;20.90;47.10;;;20.40;47.55;102240.22;12248443;19;19923;-87
2023/09/05 00:23:45;;;;;;;;;;;20.90;47.20;;;20.09;47.75;102195.53;12249830;19;19921;-87
2023/09/05 00:27:47;;;;;;;;;;;20.90;47.20;;;20.20;47.50;102221.28;12250725;19;20275;-87
2023/09/05 00:31:49;;;;;;;;;;;20.80;47.20;;;20.23;47.86;102226.38;12247473;19;19934;-87
2023/09/05 00:35:54;;;;;;;;;;;20.80;47.20;;;20.22;47.74;102210.53;12249701;19;19919;-87
2023/09/05 00:39:55;;;;;;;;;;;20.80;47.30;;;20.19;47.70;102211.63;12247248;19;19919;-87
2023/09/05 00:43:58;;;;;;;;;;;20.70;47.20;;;20.05;47.65;102207.31;12249422;19;20347;-87
2023/09/05 00:48:02;;;;;;;;;;;20.70;47.30;;;20.12;47.97;102223.66;12246449;19;20267;-87
2023/09/05 00:52:05;;;;;;;;;;;20.70;47.30;;;20.00;47.95;102204.13;12244582;19;19990;-87
2023/09/05 00:56:06;;;;;;;;;;;20.60;47.40;;;20.02;47.89;102210.19;12247313;19;19926;-87
2023/09/05 01:00:11;;;;;;;;;;;20.60;47.40;;;19.98;47.87;102207.84;12244572;19;19936;-87
2023/09/05 01:04:14;;;;;;;;;;;20.60;47.40;;;19.94;48.03;102201.94;12248391;19;19921;-87
2023/09/05 01:08:27;;;;;;;;;;;20.60;47.50;;;20.02;47.92;102222.59;12246544;19;19922;-87
2023/09/05 01:12:29;;;;;;;;;;;20.60;47.40;;;19.92;47.76;102206.47;12245792;19;19911;-87
2023/09/05 01:17:13;;;;;;;;;;;20.50;47.40;;;19.96;47.94;102207.97;12241619;19;19986;-87
2023/09/05 01:21:31;;;;;;;;;;;20.50;47.50;;;19.76;47.62;102185.50;12240992;19;19907;-87
2023/09/05 01:25:33;;;;;;;;;;;20.50;47.40;;;19.84;48.08;102200.88;12246594;19;19915;-87
2023/09/05 01:29:35;;;;;;;;;;;20.40;47.40;;;19.71;47.81;102184.97;12243737;19;19919;-87
2023/09/05 01:33:40;;;;;;;;;;;20.40;47.40;;;19.54;48.08;102156.16;12242646;19;19927;-87
2023/09/05 01:37:41;;;;;;;;;;;20.40;47.50;;;19.72;48.10;102197.31;12244752;19;19943;-86
2023/09/05 01:41:43;;;;;;;;;;;20.30;47.40;;;19.55;48.13;102168.44;12240492;19;20036;-87
2023/09/05 01:45:44;;;;;;;;;;;20.30;47.40;;;19.63;48.26;102184.66;12245844;19;19919;-86
2023/09/05 01:49:46;;;;;;;;;;;20.20;47.50;;;19.55;48.26;102179.91;12243196;19;19939;-86
2023/09/05 01:53:48;;;;;;;;;;;20.20;47.40;;;19.25;47.98;102135.19;12242761;19;19915;-87
2023/09/05 01:57:50;;;;;;;;;;;20.10;47.40;;;19.40;48.28;102173.88;12244187;19;19919;-87
2023/09/05 02:01:51;;;;;;;;;;;20.10;47.50;;;19.31;48.27;102163.91;12240924;19;19949;-86
2023/09/05 02:05:52;;;;;;;;;;;20.00;47.50;;;19.41;48.33;102182.66;12245436;19;19943;-86
2023/09/05 02:09:54;;;;;;;;;;;20.00;47.50;;;19.31;48.00;102171.88;12242286;19;19978;-86
2023/09/05 02:13:55;;;;;;;;;;;20.00;47.60;;;19.28;48.48;102172.09;12241281;19;19923;-86
2023/09/05 02:18:02;;;;;;;;;;;19.90;47.60;;;19.22;48.33;102168.03;12243915;19;19923;-86
2023/09/05 02:22:03;;;;;;;;;;;19.90;47.60;;;19.01;48.44;102133.28;12239648;19;19915;-86
2023/09/05 02:26:04;;;;;;;;;;;19.90;47.60;;;19.06;48.57;102137.41;12243096;19;19925;-87
2023/09/05 02:30:07;;;;;;;;;;;19.80;47.70;;;19.13;48.35;102147.47;12241214;19;19943;-87
2023/09/05 02:34:09;;;;;;;;;;;19.80;47.70;;;19.15;48.20;102150.03;12240386;19;19921;-86
2023/09/05 02:38:13;;;;;;;;;;;19.80;47.70;;;19.09;48.22;102138.06;12243380;19;19951;-87
2023/09/05 02:42:14;;;;;;;;;;;19.80;47.70;;;19.11;48.45;102138.78;12254857;19;20329;-87
2023/09/05 02:46:16;;;;;;;;;;;19.80;47.80;;;19.10;48.68;102141.56;12256224;19;19922;-86
2023/09/05 02:50:18;;;;;;;;;;;19.80;47.70;;;19.08;48.72;102139.00;12254490;19;19919;-86
2023/09/05 02:54:19;;;;;;;;;;;19.70;47.70;;;18.95;48.70;102124.91;12253101;19;19919;-86
2023/09/05 02:58:21;;;;;;;;;;;19.70;47.70;;;18.86;48.73;102113.16;12255938;19;20329;-87
2023/09/05 03:02:22;;;;;;;;;;;19.70;47.80;;;18.96;48.56;102129.28;12254084;19;19918;-86
2023/09/05 03:06:24;;;;;;;;;;;19.60;47.70;;;18.72;48.36;102094.69;12254481;19;19911;-86
2023/09/05 03:10:26;;;;;;;;;;;19.60;47.80;;;18.66;48.49;102097.72;12250501;19;19926;-87
2023/09/05 03:14:27;;;;;;;;;;;19.60;47.70;;;18.85;48.44;102142.34;12251727;19;20345;-87
2023/09/05 03:18:29;;;;;;;;;;;19.50;47.70;;;18.74;48.65;102130.72;12249115;19;19922;-86
2023/09/05 03:22:31;;;;;;;;;;;19.50;47.80;;;18.74;48.79;102145.69;12250243;19;20486;-86
2023/09/05 03:26:32;;;;;;;;;;;19.40;47.80;;;18.76;48.50;102154.41;12253320;19;19928;-87
2023/09/05 03:30:34;;;;;;;;;;;19.40;47.90;;;18.58;48.68;102130.88;12250343;19;19944;-86
2023/09/05 03:34:36;;;;;;;;;;;19.40;47.90;;;18.57;48.90;102128.31;12255463;19;19911;-86
2023/09/05 03:38:37;;;;;;;;;;;19.40;47.90;;;18.67;48.82;102141.78;12253442;19;19936;-87
2023/09/05 03:42:40;;;;;;;;;;;19.40;48.00;;;18.69;48.95;102147.84;12253634;19;20257;-87
2023/09/05 03:46:41;;;;;;;;;;;19.30;48.00;;;18.61;48.64;102142.19;12249091;19;19996;-86
2023/09/05 03:50:43;;;;;;;;;;;19.30;48.00;;;18.66;49.06;102154.16;12246203;19;19915;-86
2023/09/05 03:54:44;;;;;;;;;;;19.40;48.00;;;18.50;49.00;102141.09;12250849;19;20344;-86
2023/09/05 03:58:46;;;;;;;;;;;19.30;48.00;;;18.51;48.87;102142.78;12252339;19;19918;-87
2023/09/05 04:02:48;;;;;;;;;;;19.30;48.00;;;18.54;49.04;102155.81;12249517;19;20003;-87
2023/09/05 04:06:50;;;;;;;;;;;19.30;48.00;;;18.41;48.88;102138.22;12251795;19;19911;-87
2023/09/05 04:10:59;;;;;;;;;;;19.20;48.00;;;18.26;48.77;102121.56;12246798;19;19919;-86
2023/09/05 04:15:01;;;;;;;;;;;19.10;47.90;;;18.29;49.04;102135.41;12241040;19;19942;-88
2023/09/05 04:19:03;;;;;;;;;;;19.10;48.00;;;18.22;49.05;102125.34;12246723;19;19923;-87
2023/09/05 04:23:04;;;;;;;;;;;19.10;48.00;;;18.31;48.98;102148.56;12248586;19;19926;-88
2023/09/05 04:27:05;;;;;;;;;;;19.10;48.10;;;18.20;48.92;102145.75;12247177;19;19919;-88
2023/09/05 04:31:08;;;;;;;;;;;19.00;48.10;;;18.23;49.08;102156.16;12242870;19;19918;-88
2023/09/05 04:35:09;;;;;;;;;;;19.00;48.10;;;17.99;49.16;102129.50;12242558;19;19940;-87
2023/09/05 04:39:11;;;;;;;;;;;19.00;48.10;;;18.16;49.09;102152.19;12245018;19;19923;-86
2023/09/05 04:43:13;;;;;;;;;;;19.00;48.20;;;18.18;49.08;102158.22;12245255;19;19915;-87
2023/09/05 04:47:22;;;;;;;;;;;18.90;48.20;;;18.25;49.08;102175.38;12246977;19;19915;-87
2023/09/05 04:51:23;;;;;;;;;;;18.90;48.20;;;17.97;49.16;102128.72;12235547;19;19919;-87
2023/09/05 04:55:25;;;;;;;;;;;18.90;48.20;;;18.17;49.44;102167.09;12245642;19;20019;-86
2023/09/05 04:59:27;;;;;;;;;;;18.90;48.30;;;18.19;49.17;102176.63;12246609;19;19934;-86
2023/09/05 05:03:30;;;;;;;;;;;18.90;48.30;;;18.13;49.24;102177.03;12246853;19;19979;-85
2023/09/05 05:07:32;;;;;;;;;;;18.90;48.30;;;18.13;49.21;102182.31;12246667;19;19930;-85
2023/09/05 05:11:33;;;;;;;;;;;18.90;48.30;;;18.11;49.36;102173.63;12244918;19;19930;-84
2023/09/05 05:15:34;;;;;;;;;;;18.90;48.40;;;18.02;49.28;102169.78;12246061;19;19935;-85
2023/09/05 05:19:36;;;;;;;;;;;18.90;48.50;;;18.03;49.25;102160.88;12245017;19;19918;-85
2023/09/05 05:23:37;;;;;;;;;;;18.90;48.50;;;18.14;49.43;102190.13;12247586;19;20249;-84
2023/09/05 05:27:39;;;;;;;;;;;18.90;48.50;;;17.87;49.29;102144.31;12247133;19;19918;-85
2023/09/05 05:31:41;;;;;;;;;;;18.90;48.60;;;18.04;49.43;102178.47;12243905;19;19922;-85
2023/09/05 05:35:43;;;;;;;;;;;18.90;48.60;;;18.03;49.32;102166.19;12247148;19;19914;-85
2023/09/05 05:39:45;;;;;;;;;;;18.90;48.70;;;17.97;49.72;102152.50;12244181;19;20340;-85
2023/09/05 05:43:47;;;;;;;;;;;18.90;48.80;;;18.07;49.41;102151.00;12245584;19;19919;-85
2023/09/05 05:47:48;;;;;;;;;;;18.90;48.90;;;18.06;49.60;102160.69;12245516;19;19930;-85
2023/09/05 05:51:50;;;;;;;;;;;18.90;49.00;;;18.12;49.55;102162.13;12243442;19;20325;-84
2023/09/05 05:55:52;;;;;;;;;;;19.00;49.20;;;18.12;49.48;102147.09;12246738;19;19919;-86
2023/09/05 05:59:53;;;;;;;;;;;18.90;49.30;;;18.23;49.63;102161.44;12244662;19;19921;-85
2023/09/05 06:03:55;;;;;;;;;;;19.00;49.60;;;18.26;49.69;102151.50;12247414;19;19921;-84
2023/09/05 06:07:56;;;;;;;;;;;19.00;49.60;;;18.36;49.91;102159.66;12245005;19;19915;-85
2023/09/05 06:11:59;;;;;;;;;;;19.10;49.90;;;18.40;49.95;102157.69;12240006;19;19910;-85
2023/09/05 06:16:00;;;;;;;;;;;19.20;50.10;;;18.52;49.78;102157.75;12248685;19;19922;-84
2023/09/05 06:20:02;;;;;;;;;;;19.30;50.10;;;18.56;50.09;102148.63;12254234;19;19933;-84
2023/09/05 06:24:04;;;;;;;;;;;19.40;50.10;;;18.70;50.27;102162.75;12255378;19;19935;-84
2023/09/05 06:28:05;;;;;;;;;;;19.50;50.40;;;18.73;50.32;102149.31;12254909;19;19925;-85
2023/09/05 06:32:07;;;;;;;;;;;19.60;50.30;;;18.91;50.17;102158.69;12255973;19;19986;-85
2023/09/05 06:36:11;;;;;;;;;;;19.80;51.10;;;19.00;50.29;102146.63;12256234;19;19918;-84
2023/09/05 06:40:15;;;;;;;;;;;19.90;51.00;;;19.15;50.38;102147.38;12251957;19;19929;-85
2023/09/05 06:44:17;;;;;;;;;;;20.00;50.90;;;19.24;50.18;102144.94;12257207;19;19918;-83
2023/09/05 06:48:18;;;;;;;;;;;20.10;51.40;;;19.33;50.39;102142.59;12255158;19;19930;-84
2023/09/05 06:52:19;;;;;;;;;;;20.20;50.80;;;19.51;50.29;102145.78;12255040;19;19923;-83
2023/09/05 06:56:21;;;;;;;;;;;20.40;51.10;;;19.67;50.46;102157.88;12257364;19;19926;-82
2023/09/05 07:00:25;;;;;;;;;;;20.60;51.30;;;19.66;50.70;102136.78;12252142;19;20451;-83
2023/09/05 07:04:27;;;;;;;;;;;20.70;51.00;;;19.91;50.77;102172.16;12258075;19;19927;-83
2023/09/05 07:08:29;;;;;;;;;;;20.80;50.60;;;20.01;50.52;102166.06;12255479;19;19926;-82
2023/09/05 07:12:30;;;;;;;;;;;21.00;50.80;;;20.06;50.36;102152.44;12253475;19;19922;-83
2023/09/05 07:16:32;;;;;;;;;;;21.10;50.60;;;20.22;50.61;102155.69;12253899;19;19938;-83
2023/09/05 07:20:34;;;;;;;;;;;21.20;50.70;;;20.35;50.60;102163.59;12249615;19;20265;-83
2023/09/05 07:24:36;;;;;;;;;;;21.40;50.40;;;20.46;50.48;102168.94;12251689;19;19915;-82
2023/09/05 07:28:38;;;;;;;;;;;21.50;50.60;;;20.59;50.96;102178.69;12250212;19;19929;-83
2023/09/05 07:32:40;;;;;;;;;;;21.60;50.60;;;20.47;50.69;102140.63;12252295;19;20333;-83
2023/09/05 07:36:41;;;;;;;;;;;21.70;50.90;;;20.82;50.98;102176.97;12254736;19;19929;-83
2023/09/05 07:40:43;;;;;;;;;;;21.90;50.70;;;21.02;50.61;102186.94;12250681;19;19922;-84
2023/09/05 07:44:44;;;;;;;;;;;22.00;50.60;;;21.08;50.88;102172.31;12254852;19;19922;-83
2023/09/05 07:48:47;;;;;;;;;;;22.20;50.50;;;21.20;51.12;102163.44;12251931;19;20329;-82
2023/09/05 07:52:49;;;;;;;;;;;22.30;50.60;;;21.55;51.01;102189.94;12249689;19;19922;-83
2023/09/05 07:56:50;;;;;;;;;;;22.60;51.20;;;21.73;51.17;102181.47;12256805;19;19926;-83
2023/09/05 08:00:53;;;;;;;;;;;22.80;50.90;;;21.93;51.10;102174.53;12246203;19;19919;-82
2023/09/05 08:04:56;;;;;;;;;;;23.00;50.40;;;22.10;51.15;102174.88;12249118;19;19919;-82
2023/09/05 08:08:58;;;;;;;;;;;23.20;50.30;;;22.33;51.29;102185.50;12247974;19;20333;-82
2023/09/05 08:12:59;;;;;;;;;;;23.40;50.30;;;22.50;50.89;102190.28;12247723;19;19982;-83
2023/09/05 08:17:01;;;;;;;;;;;23.60;50.40;;;22.61;51.13;102176.09;12248595;19;19923;-82
2023/09/05 08:21:04;;;;;;;;;;;23.80;50.00;;;22.82;51.22;102178.78;12245771;19;19919;-83
2023/09/05 08:25:09;;;;;;;;;;;23.90;49.80;;;22.93;50.80;102165.38;12248283;19;20277;-82
2023/09/05 08:29:13;;;;;;;;;;;24.20;49.80;;;23.16;51.00;102162.59;12246278;19;20478;-81
2023/09/05 08:33:15;;;;;;;;;;;24.30;49.50;;;23.28;50.90;102150.91;12242877;19;20310;-82
2023/09/05 08:37:16;;;;;;;;;;;24.50;49.60;;;23.58;51.15;102170.53;12245766;19;20323;-83
2023/09/05 08:41:18;;;;;;;;;;;24.70;49.30;;;23.60;50.87;102139.22;12245180;19;19931;-83
2023/09/05 08:45:22;;;;;;;;;;;24.90;49.00;;;23.97;50.77;102165.34;12247773;19;19939;-82
2023/09/05 08:49:24;;;;;;;;;;;25.10;49.10;;;24.10;51.14;102149.91;12244936;19;19918;-82
2023/09/05 08:53:40;;;;;;;;;;;25.30;49.00;;;24.29;50.86;102155.25;12243384;19;19929;-82
2023/09/05 08:57:45;;;;;;;;;;;25.50;48.60;;;24.47;50.39;102150.09;12244859;19;19931;-82
2023/09/05 09:01:47;;;;;;;;;;;25.70;48.30;;;24.71;50.70;102168.38;12241790;19;19910;-82
2023/09/05 09:05:49;;;;;;;;;;;25.80;47.70;;;24.83;50.72;102146.84;12243824;19;19926;-82
2023/09/05 09:09:50;;;;;;;;;;;26.00;48.40;;;25.04;50.18;102152.84;12245042;19;20349;-82
2023/09/05 09:13:59;;;;;;;;;;;26.20;47.40;;;25.27;50.52;102160.53;12243500;19;19923;-82
2023/09/05 09:18:01;;;;;;;;;;;26.40;47.30;;;25.42;50.63;102156.41;12244439;19;19929;-82
2023/09/05 09:22:03;;;;;;;;;;;26.50;47.50;;;25.56;50.37;102144.38;12238200;19;20348;-81
2023/09/05 09:26:05;;;;;;;;;;;26.70;45.30;;;25.74;50.20;102141.75;12242345;19;19947;-81
2023/09/05 09:30:11;;;;;;;;;;;26.80;46.80;;;25.88;50.18;102145.78;12239423;19;20011;-82
2023/09/05 09:34:18;;;;;;;;;;;26.90;45.50;;;26.00;50.03;102142.72;12241662;19;19918;-82
2023/09/05 09:38:20;;;;;;;;;;;27.10;43.00;;;26.09;49.95;102124.94;12240303;19;19922;-82
2023/09/05 09:42:25;;;;;;;;;;;27.20;44.40;;;26.31;49.96;102139.69;12241642;19;19923;-81
2023/09/05 09:46:27;;;;;;;;;;;27.30;44.50;;;26.39;49.34;102112.13;12242746;19;19926;-82
2023/09/05 09:50:28;;;;;;;;;;;27.50;45.00;;;26.52;49.52;102114.44;12243017;19;19915;-81
2023/09/05 09:54:36;;;;;;;;;;;27.60;45.40;;;26.68;49.18;102111.88;12248436;19;20274;-82
2023/09/05 09:58:40;;;;;;;;;;;27.70;42.40;;;26.77;49.27;102104.75;12253781;19;19929;-81
2023/09/05 10:02:45;;;;;;;;;;;27.80;44.20;;;26.92;48.78;102106.69;12253197;19;19918;-81
2023/09/05 10:06:48;;;;;;;;;;;27.90;44.20;;;27.00;48.66;102092.47;12256191;19;20318;-82
2023/09/05 10:10:51;;;;;;;;;;;28.00;42.80;;;27.11;48.48;102077.94;12248572;19;19986;-82
2023/09/05 10:14:55;;;;;;;;;;;28.10;43.30;;;27.22;48.35;102090.25;12255592;19;19970;-82
2023/09/05 10:18:57;;;;;;;;;;;28.20;39.80;;;27.31;47.96;102100.88;12253125;19;19948;-81
2023/09/05 10:22:59;;;;;;;;;;;28.30;43.00;;;27.36;48.20;102090.50;12254356;19;20291;-82
2023/09/05 10:27:01;;;;;;;;;;;28.40;43.40;;;27.47;47.68;102092.06;12253682;19;20436;-83
2023/09/05 10:31:12;;;;;;;;;;;28.40;41.60;;;27.56;47.91;102084.84;12248841;19;19929;-82
2023/09/05 10:35:18;;;;;;;;;;;28.50;44.30;;;27.70;48.03;102067.28;12252187;19;19921;-81
2023/09/05 10:39:27;;;;;;;;;;;28.60;43.60;;;27.82;47.46;102076.75;12256367;19;19936;-82
2023/09/05 10:43:29;;;;;;;;;;;28.80;43.00;;;27.92;47.76;102071.19;12256748;19;19918;-83
2023/09/05 10:47:36;;;;;;;;;;;28.80;42.30;;;28.00;47.73;102063.16;12263074;19;20321;-82
2023/09/05 10:52:15;;;;;;;;;;;29.00;42.90;;;28.11;47.47;102052.09;12253652;19;20621;-82
2023/09/05 10:56:40;;;;;;;;;;;29.00;41.80;;;28.21;47.54;102054.59;12253061;19;19907;-82
2023/09/05 11:00:41;;;;;;;;;;;29.10;41.00;;;28.23;47.11;102042.69;12244814;19;19925;-81
2023/09/05 11:04:44;;;;;;;;;;;29.20;44.30;;;28.38;47.31;102039.28;12251860;19;19943;-82
2023/09/05 11:09:06;;;;;;;;;;;29.30;42.50;;;28.47;47.18;102034.81;12248360;19;19922;-82
2023/09/05 11:13:08;;;;;;;;;;;29.40;39.80;;;28.56;47.02;102036.44;12247116;19;19918;-83
2023/09/05 11:17:15;;;;;;;;;;;29.50;43.70;;;28.65;46.99;102033.59;12252817;19;19919;-82
2023/09/05 11:21:23;;;;;;;;;;;29.60;42.20;;;28.75;46.88;102035.22;12247069;19;19940;-82
2023/09/05 11:25:25;;;;;;;;;;;29.60;43.30;;;28.71;46.61;102018.59;12251477;19;19922;-82
2023/09/05 11:29:28;;;;;;;;;;;29.70;43.20;;;28.85;46.91;102020.56;12246762;19;19922;-82
2023/09/05 11:33:31;;;;;;;;;;;29.80;42.90;;;28.94;46.83;102020.53;12245668;19;19926;-82
2023/09/05 11:37:34;;;;;;;;;;;29.90;43.80;;;29.07;46.54;102028.91;12247974;19;19923;-82
2023/09/05 11:41:40;;;;;;;;;;;29.90;44.10;;;29.12;46.48;102021.16;12246493;19;19922;-82
2023/09/05 11:45:43;;;;;;;;;;;30.00;43.40;;;29.16;46.53;102017.09;12241295;19;20234;-82
2023/09/05 11:49:46;;;;;;;;;;;30.00;43.50;;;29.22;46.22;102015.56;12246403;19;20020;-81
2023/09/05 11:53:48;;;;;;;;;;;30.20;44.10;;;29.25;46.28;102015.22;12245062;19;19910;-82
2023/09/05 11:57:52;;;;;;;;;;;30.20;44.10;;;29.07;46.08;101970.56;12246415;19;19931;-82
2023/09/05 12:01:54;;;;;;;;;;;30.20;43.90;;;29.41;46.15;102001.66;12244343;19;19946;-82
2023/09/05 12:05:56;;;;;;;;;;;30.30;44.70;;;29.50;46.42;102013.22;12246619;19;19924;-82
2023/09/05 12:09:58;;;;;;;;;;;30.40;43.60;;;29.59;46.33;102008.59;12245783;19;19987;-82
2023/09/05 12:13:59;;;;;;;;;;;30.50;44.10;;;29.66;45.96;102006.91;12239838;19;20008;-82
2023/09/05 12:18:04;;;;;;;;;;;30.50;43.90;;;29.71;45.67;102002.66;12248320;19;19914;-82
2023/09/05 12:22:05;;;;;;;;;;;30.60;44.40;;;29.79;45.73;102007.16;12243542;19;19918;-82
2023/09/05 12:26:07;;;;;;;;;;;30.70;42.70;;;29.89;45.79;102001.50;12242843;19;20329;-81
2023/09/05 12:30:29;;;;;;;;;;;30.70;42.90;;;29.94;45.76;102005.31;12238343;19;19926;-82
2023/09/05 12:34:31;;;;;;;;;;;30.80;43.60;;;30.03;45.58;101997.16;12233937;19;19946;-82
2023/09/05 12:38:32;;;;;;;;;;;30.90;43.90;;;30.03;45.81;101981.88;12240595;19;19952;-82
2023/09/05 12:42:34;;;;;;;;;;;30.90;43.40;;;30.13;45.74;101992.38;12243655;19;19930;-82
2023/09/05 12:46:36;;;;;;;;;;;31.00;42.90;;;30.19;45.71;101988.94;12241737;19;19927;-82
2023/09/05 12:50:38;;;;;;;;;;;31.00;43.80;;;30.23;45.42;101970.59;12239289;19;20257;-82
2023/09/05 12:54:40;;;;;;;;;;;31.10;43.00;;;30.31;45.55;101978.59;12236239;19;19927;-82
2023/09/05 12:58:42;;;;;;;;;;;31.10;43.40;;;30.35;45.35;101967.25;12241262;19;19933;-82
2023/09/05 13:02:43;;;;;;;;;;;31.20;40.00;;;30.36;45.03;101958.13;12241148;19;19974;-82
2023/09/05 13:06:47;;;;;;;;;;;31.20;42.90;;;30.36;44.96;101950.06;12241354;19;20358;-82
2023/09/05 13:10:49;;;;;;;;;;;31.20;40.90;;;30.36;44.86;101941.97;12238888;19;19952;-83
2023/09/05 13:14:51;;;;;;;;;;;31.20;39.20;;;30.40;45.07;101953.19;12235312;19;19918;-82
2023/09/05 13:18:52;;;;;;;;;;;31.20;41.20;;;30.37;44.95;101959.81;12031386;19;4096079;-82
2023/09/05 13:22:54;;;;;;;;;;;31.20;42.50;;;30.40;44.93;101945.13;12243700;19;20008;-81
2023/09/05 13:26:56;;;;;;;;;;;31.20;43.00;;;30.42;44.66;101948.47;12245267;19;19931;-82
2023/09/05 13:30:58;;;;;;;;;;;31.20;42.10;;;30.45;44.68;101934.63;12242260;19;19986;-82
2023/09/05 13:35:00;;;;;;;;;;;31.20;43.00;;;30.48;44.78;101925.31;12243836;19;19922;-82
2023/09/05 13:39:02;;;;;;;;;;;31.20;42.80;;;30.50;44.51;101912.50;12239671;19;19918;-82
2023/09/05 13:43:04;;;;;;;;;;;31.20;43.20;;;30.59;44.25;101927.53;12243266;19;20389;-82
2023/09/05 13:47:05;;;;;;;;;;;31.30;41.80;;;30.56;44.22;101907.16;12241725;19;20301;-81
2023/09/05 13:51:07;;;;;;;;;;;31.40;38.00;;;30.57;44.22;101908.00;12240059;19;19915;-82
2023/09/05 13:55:09;;;;;;;;;;;31.30;40.00;;;30.57;44.07;101903.47;12241836;19;19949;-81
2023/09/05 13:59:11;;;;;;;;;;;31.30;41.80;;;30.53;44.13;101888.69;12241391;19;19919;-83
2023/09/05 14:03:12;;;;;;;;;;;31.40;40.70;;;30.60;44.15;101895.00;12241363;19;19927;-82
2023/09/05 14:07:14;;;;;;;;;;;31.30;41.20;;;30.58;43.96;101882.72;12241975;19;19978;-83
2023/09/05 14:11:16;;;;;;;;;;;31.30;41.80;;;30.61;43.85;101876.94;12237735;19;19968;-82
2023/09/05 14:15:18;;;;;;;;;;;31.40;40.40;;;30.65;43.89;101889.88;12241710;19;19950;-82
2023/09/05 14:19:20;;;;;;;;;;;31.30;40.10;;;30.63;43.79;101878.44;12240429;19;19919;-82
2023/09/05 14:23:21;;;;;;;;;;;31.30;41.80;;;30.64;43.49;101879.25;12242137;19;20333;-81
2023/09/05 14:27:23;;;;;;;;;;;31.40;42.00;;;30.62;43.72;101884.00;12241042;19;19947;-82
2023/09/05 14:31:25;;;;;;;;;;;31.30;40.50;;;30.62;43.72;101875.91;12235166;19;20366;-82
2023/09/05 14:35:26;;;;;;;;;;;31.30;39.60;;;30.54;43.36;101858.00;12240495;19;19927;-82
2023/09/05 14:39:29;;;;;;;;;;;31.20;42.20;;;30.61;43.33;101866.16;12248557;19;19929;-82
2023/09/05 14:43:30;;;;;;;;;;;31.20;42.00;;;30.63;43.59;101869.50;12251424;19;19947;-82
2023/09/05 14:47:32;;;;;;;;;;;31.20;42.50;;;30.58;43.40;101850.38;12251553;19;19952;-82
2023/09/05 14:51:33;;;;;;;;;;;31.20;42.00;;;30.65;43.40;101854.81;12246944;19;19935;-82
2023/09/05 14:55:35;;;;;;;;;;;31.30;42.50;;;30.70;43.22;101864.19;12250442;19;19926;-82
2023/09/05 14:59:37;;;;;;;;;;;31.30;42.40;;;30.55;43.26;101829.19;12249243;19;20337;-82
2023/09/05 15:03:38;;;;;;;;;;;31.30;42.50;;;30.72;43.18;101851.34;12250468;19;19927;-82
2023/09/05 15:07:40;;;;;;;;;;;31.30;41.00;;;30.70;43.15;101853.41;12254207;19;19935;-82
2023/09/05 15:11:42;;;;;;;;;;;31.30;41.90;;;30.63;43.29;101835.28;12246937;19;19926;-82
2023/09/05 15:15:43;;;;;;;;;;;31.30;41.40;;;30.61;43.23;101839.19;12251528;19;19947;-82
2023/09/05 15:19:45;;;;;;;;;;;31.30;41.90;;;30.60;42.95;101843.75;12245570;19;19938;-83
2023/09/05 15:23:46;;;;;;;;;;;31.20;42.00;;;30.65;43.04;101843.19;12249383;19;19915;-82
2023/09/05 15:27:48;;;;;;;;;;;31.30;41.70;;;30.61;42.76;101837.34;12248873;19;20307;-82
2023/09/05 15:31:50;;;;;;;;;;;31.20;40.90;;;30.58;43.05;101831.50;12247337;19;19934;-81
2023/09/05 15:35:59;;;;;;;;;;;31.20;40.20;;;30.59;42.66;101836.69;12251560;19;19938;-82
2023/09/05 15:40:01;;;;;;;;;;;31.20;41.60;;;30.51;42.62;101826.00;12246392;19;19927;-82
2023/09/05 15:44:03;;;;;;;;;;;31.10;41.00;;;30.56;42.88;101828.16;12247952;19;20272;-82
2023/09/05 15:48:06;;;;;;;;;;;31.10;40.70;;;30.56;42.86;101831.66;12246155;19;19923;-82
2023/09/05 15:52:08;;;;;;;;;;;31.10;42.00;;;30.58;42.50;101831.50;12248204;19;19925;-83
2023/09/05 15:56:10;;;;;;;;;;;31.10;40.80;;;30.54;42.43;101835.59;12247728;19;20362;-82
2023/09/05 16:00:13;;;;;;;;;;;31.10;40.90;;;30.50;42.76;101826.22;12247037;19;19929;-82
2023/09/05 16:04:16;;;;;;;;;;;31.10;41.40;;;30.52;42.39;101835.78;12246506;19;19927;-81
2023/09/05 16:08:19;;;;;;;;;;;31.10;41.40;;;30.49;42.78;101827.22;12247863;19;19943;-82
2023/09/05 16:12:21;;;;;;;;;;;31.10;41.60;;;30.38;42.16;101813.22;12245702;19;20338;-82
2023/09/05 16:16:22;;;;;;;;;;;31.00;41.70;;;30.48;42.46;101826.41;12246752;19;19915;-82
2023/09/05 16:20:24;;;;;;;;;;;31.00;41.80;;;30.41;42.56;101814.72;12243707;19;19924;-82
2023/09/05 16:24:26;;;;;;;;;;;31.00;42.00;;;30.41;42.31;101818.25;12244328;19;20378;-82
2023/09/05 16:28:27;;;;;;;;;;;31.00;42.10;;;30.37;42.52;101824.19;12245241;19;19930;-81
2023/09/05 16:32:29;;;;;;;;;;;30.90;42.10;;;30.29;42.07;101803.56;12246276;19;19911;-82
2023/09/05 16:36:30;;;;;;;;;;;30.90;42.30;;;30.31;42.48;101817.69;12245723;19;19926;-82
2023/09/05 16:40:32;;;;;;;;;;;30.80;42.20;;;30.29;42.05;101817.03;12243216;19;20276;-81
2023/09/05 16:44:33;;;;;;;;;;;30.80;42.20;;;30.23;42.23;101815.09;12247389;19;19927;-82
2023/09/05 16:48:36;;;;;;;;;;;30.70;42.00;;;30.19;42.10;101821.84;12236931;19;20372;-81
2023/09/05 16:57:35;;;;;;;;;;;30.60;42.30;;;30.00;42.12;101809.78;12154115;19;19957;-80
2023/09/05 17:01:41;;;;;;;;;;;30.50;42.30;;;29.90;42.05;101799.31;12233386;19;19930;-80
2023/09/05 17:05:42;;;;;;;;;;;30.30;42.40;;;29.83;42.04;101802.94;12240213;19;19922;-80
2023/09/05 17:09:44;;;;;;;;;;;30.30;42.60;;;29.66;42.25;101794.19;12241843;19;19922;-83
2023/09/05 17:13:45;;;;;;;;;;;30.10;42.60;;;29.56;42.42;101810.59;12236910;19;19919;-83
2023/09/05 17:17:46;;;;;;;;;;;30.10;42.70;;;29.47;42.37;101809.00;12239161;19;20257;-83
2023/09/05 17:21:48;;;;;;;;;;;29.90;42.70;;;29.31;42.11;101791.16;12243104;19;19919;-83
2023/09/05 17:25:50;;;;;;;;;;;29.70;42.70;;;29.22;42.04;101802.97;12239024;19;20336;-83
2023/09/05 17:29:51;;;;;;;;;;;29.60;42.70;;;29.14;42.24;101820.06;12242411;19;19938;-83
2023/09/05 17:33:53;;;;;;;;;;;29.50;42.70;;;28.98;41.89;101810.22;12239393;19;19923;-83
2023/09/05 17:37:54;;;;;;;;;;;29.40;42.80;;;28.87;42.02;101813.34;12236229;19;20352;-83
2023/09/05 17:41:56;;;;;;;;;;;29.30;42.80;;;28.71;42.00;101805.38;12240140;19;19925;-83
2023/09/05 17:45:57;;;;;;;;;;;29.10;42.80;;;28.60;42.65;101806.63;12238169;19;19930;-83
2023/09/05 17:49:59;;;;;;;;;;;29.00;42.90;;;28.58;42.16;101819.41;12241564;19;19944;-83
2023/09/05 17:54:01;;;;;;;;;;;28.80;42.90;;;28.50;42.29;101819.44;12239589;19;19926;-83
2023/09/05 17:58:02;;;;;;;;;;;28.80;43.10;;;28.26;42.16;101798.88;12242723;19;19919;-84
2023/09/05 18:02:03;;;;;;;;;;;28.60;42.90;;;28.19;42.33;101802.25;12249149;19;19951;-84
2023/09/05 18:06:05;;;;;;;;;;;28.50;42.90;;;27.98;42.42;101793.94;12241283;19;19934;-84
2023/09/05 18:10:11;;;;;;;;;;;28.40;43.00;;;28.06;42.32;101809.16;12250910;19;19946;-85
2023/09/05 18:14:17;;;;;;;;;;;28.30;43.00;;;27.81;42.34;101787.78;12254054;19;19936;-84
2023/09/05 18:18:18;;;;;;;;;;;28.30;43.00;;;27.88;42.57;101818.31;12266902;19;19922;-85